sensor_id;sensor_type;location;lat;lon;timestamp;pressure;altitude;pressure_sealevel;temperature;humidity
49611;BME280;35515;48.766;9.176;2024-03-02T00:00:14;97196.78;;;7.60;100.00
49611;BME280;35515;48.766;9.176;2024-03-02T00:02:40;97189.69;;;7.65;100.00
49611;BME280;35515;48.766;9.176;2024-03-02T00:05:07;97198.53;;;7.73;99.53
49611;BME280;35515;48.766;9.176;2024-03-02T00:07:35;97196.78;;;7.60;100.00
49611;BME280;35515;48.766;9.176;2024-03-02T00:10:07;97190.59;;;7.52;100.00
49611;BME280;35515;48.766;9.176;2024-03-02T00:12:36;97191.91;;;7.43;100.00
49611;BME280;35515;48.766;9.176;2024-03-02T00:15:04;97196.84;;;7.46;100.00
49611;BME280;35515;48.766;9.176;2024-03-02T00:17:33;97199.72;;;7.51;100.00
49611;BME280;35515;48.766;9.176;2024-03-02T00:19:59;97187.53;;;7.42;100.00
49611;BME280;35515;48.766;9.176;2024-03-02T00:22:28;97189.91;;;7.32;100.00
49611;BME280;35515;48.766;9.176;2024-03-02T00:24:56;97196.38;;;7.24;100.00
49611;BME280;35515;48.766;9.176;2024-03-02T00:27:23;97188.63;;;7.41;100.00
49611;BME280;35515;48.766;9.176;2024-03-02T00:29:50;97198.25;;;7.56;99.25
49611;BME280;35515;48.766;9.176;2024-03-02T00:32:16;97199.22;;;7.68;98.18
49611;BME280;35515;48.766;9.176;2024-03-02T00:34:43;97210.84;;;7.62;98.53
49611;BME280;35515;48.766;9.176;2024-03-02T00:37:10;97211.31;;;7.59;98.50
49611;BME280;35515;48.766;9.176;2024-03-02T00:39:38;97210.00;;;7.68;97.51
49611;BME280;35515;48.766;9.176;2024-03-02T00:42:06;97208.78;;;7.64;98.74
49611;BME280;35515;48.766;9.176;2024-03-02T00:44:33;97197.56;;;7.67;97.74
49611;BME280;35515;48.766;9.176;2024-03-02T00:47:01;97193.19;;;7.66;97.50
49611;BME280;35515;48.766;9.176;2024-03-02T00:49:28;97193.66;;;7.63;97.17
49611;BME280;35515;48.766;9.176;2024-03-02T00:51:55;97197.78;;;7.65;96.86
49611;BME280;35515;48.766;9.176;2024-03-02T00:54:23;97199.38;;;7.73;96.14
49611;BME280;35515;48.766;9.176;2024-03-02T00:56:50;97195.38;;;7.82;95.13
49611;BME280;35515;48.766;9.176;2024-03-02T00:59:18;97189.97;;;7.82;95.31
49611;BME280;35515;48.766;9.176;2024-03-02T01:01:45;97182.47;;;7.84;94.68
49611;BME280;35515;48.766;9.176;2024-03-02T01:04:11;97187.06;;;7.84;94.79
49611;BME280;35515;48.766;9.176;2024-03-02T01:06:39;97197.41;;;7.87;94.74
49611;BME280;35515;48.766;9.176;2024-03-02T01:09:06;97186.72;;;7.74;95.79
49611;BME280;35515;48.766;9.176;2024-03-02T01:11:32;97186.03;;;7.78;94.92
49611;BME280;35515;48.766;9.176;2024-03-02T01:13:59;97188.66;;;7.66;96.23
49611;BME280;35515;48.766;9.176;2024-03-02T01:16:27;97190.78;;;7.58;96.40
49611;BME280;35515;48.766;9.176;2024-03-02T01:18:53;97191.97;;;7.62;96.43
49611;BME280;35515;48.766;9.176;2024-03-02T01:21:20;97189.28;;;7.62;96.89
49611;BME280;35515;48.766;9.176;2024-03-02T01:23:46;97189.06;;;7.63;95.83
49611;BME280;35515;48.766;9.176;2024-03-02T01:26:13;97182.69;;;7.58;96.14
49611;BME280;35515;48.766;9.176;2024-03-02T01:28:39;97185.66;;;7.49;96.99
49611;BME280;35515;48.766;9.176;2024-03-02T01:31:06;97187.53;;;7.42;97.71
49611;BME280;35515;48.766;9.176;2024-03-02T01:33:34;97190.00;;;7.50;97.19
49611;BME280;35515;48.766;9.176;2024-03-02T01:36:00;97192.78;;;7.37;97.74
49611;BME280;35515;48.766;9.176;2024-03-02T01:38:27;97196.47;;;7.43;97.65
49611;BME280;35515;48.766;9.176;2024-03-02T01:40:54;97199.97;;;7.43;97.54
49611;BME280;35515;48.766;9.176;2024-03-02T01:43:22;97201.69;;;7.38;97.91
49611;BME280;35515;48.766;9.176;2024-03-02T01:45:48;97196.50;;;7.36;98.41
49611;BME280;35515;48.766;9.176;2024-03-02T01:48:15;97194.84;;;7.35;98.11
49611;BME280;35515;48.766;9.176;2024-03-02T01:50:43;97200.75;;;7.18;98.88
49611;BME280;35515;48.766;9.176;2024-03-02T01:53:09;97199.66;;;7.26;98.83
49611;BME280;35515;48.766;9.176;2024-03-02T01:55:36;97198.66;;;7.20;99.64
49611;BME280;35515;48.766;9.176;2024-03-02T01:58:02;97197.38;;;7.30;98.85
49611;BME280;35515;48.766;9.176;2024-03-02T02:00:29;97203.31;;;7.07;99.88
49611;BME280;35515;48.766;9.176;2024-03-02T02:02:56;97199.19;;;6.97;100.00
49611;BME280;35515;48.766;9.176;2024-03-02T02:05:23;97198.75;;;7.00;100.00
49611;BME280;35515;48.766;9.176;2024-03-02T02:07:50;97198.97;;;6.99;100.00
49611;BME280;35515;48.766;9.176;2024-03-02T02:10:17;97193.78;;;7.04;100.00
49611;BME280;35515;48.766;9.176;2024-03-02T02:12:44;97185.16;;;6.82;100.00
49611;BME280;35515;48.766;9.176;2024-03-02T02:15:24;97175.09;;;6.71;100.00
49611;BME280;35515;48.766;9.176;2024-03-02T02:17:51;97178.34;;;6.79;100.00
49611;BME280;35515;48.766;9.176;2024-03-02T02:20:17;97181.28;;;6.71;100.00
49611;BME280;35515;48.766;9.176;2024-03-02T02:22:59;97181.72;;;6.68;100.00
49611;BME280;35515;48.766;9.176;2024-03-02T02:25:27;97180.25;;;6.72;100.00
49611;BME280;35515;48.766;9.176;2024-03-02T02:27:54;97180.06;;;6.67;100.00
49611;BME280;35515;48.766;9.176;2024-03-02T02:30:21;97175.28;;;6.69;100.00
49611;BME280;35515;48.766;9.176;2024-03-02T02:32:48;97178.66;;;6.51;100.00
49611;BME280;35515;48.766;9.176;2024-03-02T02:35:15;97174.31;;;6.50;100.00
49611;BME280;35515;48.766;9.176;2024-03-02T02:37:41;97171.06;;;6.28;100.00
49611;BME280;35515;48.766;9.176;2024-03-02T02:40:10;97173.72;;;6.41;100.00
49611;BME280;35515;48.766;9.176;2024-03-02T02:42:37;97160.72;;;6.25;100.00
49611;BME280;35515;48.766;9.176;2024-03-02T02:45:05;97165.03;;;6.32;100.00
49611;BME280;35515;48.766;9.176;2024-03-02T02:47:31;97158.03;;;6.25;100.00
49611;BME280;35515;48.766;9.176;2024-03-02T02:50:00;97154.31;;;6.26;100.00
49611;BME280;35515;48.766;9.176;2024-03-02T02:52:31;97152.59;;;6.45;100.00
49611;BME280;35515;48.766;9.176;2024-03-02T02:54:58;97140.16;;;6.57;100.00
49611;BME280;35515;48.766;9.176;2024-03-02T02:57:26;97155.03;;;6.60;100.00
49611;BME280;35515;48.766;9.176;2024-03-02T02:59:53;97154.28;;;6.32;100.00
49611;BME280;35515;48.766;9.176;2024-03-02T03:02:19;97150.84;;;6.05;100.00
49611;BME280;35515;48.766;9.176;2024-03-02T03:04:46;97162.97;;;6.21;100.00
49611;BME280;35515;48.766;9.176;2024-03-02T03:07:12;97165.50;;;5.96;100.00
49611;BME280;35515;48.766;9.176;2024-03-02T03:09:39;97160.53;;;5.93;100.00
49611;BME280;35515;48.766;9.176;2024-03-02T03:12:05;97163.84;;;5.81;100.00
49611;BME280;35515;48.766;9.176;2024-03-02T03:14:33;97167.56;;;5.94;100.00
49611;BME280;35515;48.766;9.176;2024-03-02T03:17:00;97177.91;;;6.03;100.00
49611;BME280;35515;48.766;9.176;2024-03-02T03:19:27;97174.63;;;6.01;100.00
49611;BME280;35515;48.766;9.176;2024-03-02T03:21:53;97166.97;;;6.05;100.00
49611;BME280;35515;48.766;9.176;2024-03-02T03:24:20;97159.06;;;6.17;100.00
49611;BME280;35515;48.766;9.176;2024-03-02T03:26:46;97164.28;;;6.05;100.00
49611;BME280;35515;48.766;9.176;2024-03-02T03:29:13;97162.19;;;6.14;100.00
49611;BME280;35515;48.766;9.176;2024-03-02T03:31:40;97158.06;;;6.11;100.00
49611;BME280;35515;48.766;9.176;2024-03-02T03:34:07;97158.47;;;6.08;100.00
49611;BME280;35515;48.766;9.176;2024-03-02T03:36:33;97168.59;;;5.93;100.00
49611;BME280;35515;48.766;9.176;2024-03-02T03:39:00;97164.69;;;6.02;100.00
49611;BME280;35515;48.766;9.176;2024-03-02T03:41:28;97165.09;;;5.92;100.00
49611;BME280;35515;48.766;9.176;2024-03-02T03:43:55;97173.16;;;5.99;100.00
49611;BME280;35515;48.766;9.176;2024-03-02T03:46:21;97162.63;;;6.04;100.00
49611;BME280;35515;48.766;9.176;2024-03-02T03:48:49;97163.00;;;5.81;100.00
49611;BME280;35515;48.766;9.176;2024-03-02T03:51:16;97167.13;;;5.83;100.00
49611;BME280;35515;48.766;9.176;2024-03-02T03:53:42;97166.31;;;5.96;100.00
49611;BME280;35515;48.766;9.176;2024-03-02T03:56:09;97164.06;;;5.80;100.00
49611;BME280;35515;48.766;9.176;2024-03-02T03:58:36;97165.09;;;5.85;100.00
49611;BME280;35515;48.766;9.176;2024-03-02T04:01:02;97160.09;;;5.82;100.00
49611;BME280;35515;48.766;9.176;2024-03-02T04:03:29;97172.50;;;5.83;100.00
49611;BME280;35515;48.766;9.176;2024-03-02T04:05:58;97172.53;;;5.77;100.00
49611;BME280;35515;48.766;9.176;2024-03-02T04:08:24;97164.88;;;5.94;100.00
49611;BME280;35515;48.766;9.176;2024-03-02T04:10:51;97168.81;;;5.98;100.00
49611;BME280;35515;48.766;9.176;2024-03-02T04:13:17;97177.06;;;5.90;100.00
49611;BME280;35515;48.766;9.176;2024-03-02T04:15:44;97170.03;;;5.89;100.00
49611;BME280;35515;48.766;9.176;2024-03-02T04:18:10;97177.28;;;5.81;100.00
49611;BME280;35515;48.766;9.176;2024-03-02T04:20:37;97171.69;;;5.63;100.00
49611;BME280;35515;48.766;9.176;2024-03-02T04:23:05;97169.63;;;5.78;100.00
49611;BME280;35515;48.766;9.176;2024-03-02T04:25:31;97160.31;;;5.94;100.00
49611;BME280;35515;48.766;9.176;2024-03-02T04:27:58;97158.69;;;5.86;100.00
49611;BME280;35515;48.766;9.176;2024-03-02T04:30:24;97156.38;;;5.83;100.00
49611;BME280;35515;48.766;9.176;2024-03-02T04:32:52;97163.00;;;5.74;100.00
49611;BME280;35515;48.766;9.176;2024-03-02T04:35:18;97165.91;;;5.66;100.00
49611;BME280;35515;48.766;9.176;2024-03-02T04:37:45;97172.53;;;5.70;100.00
49611;BME280;35515;48.766;9.176;2024-03-02T04:40:13;97170.69;;;5.77;100.00
49611;BME280;35515;48.766;9.176;2024-03-02T04:42:40;97164.22;;;5.92;100.00
49611;BME280;35515;48.766;9.176;2024-03-02T04:45:07;97174.59;;;5.68;100.00
49611;BME280;35515;48.766;9.176;2024-03-02T04:47:33;97168.78;;;5.44;100.00
49611;BME280;35515;48.766;9.176;2024-03-02T04:50:00;97170.66;;;5.50;100.00
49611;BME280;35515;48.766;9.176;2024-03-02T04:52:26;97158.88;;;5.58;100.00
49611;BME280;35515;48.766;9.176;2024-03-02T04:54:53;97164.66;;;5.62;100.00
49611;BME280;35515;48.766;9.176;2024-03-02T04:57:56;97161.78;;;5.57;100.00
49611;BME280;35515;48.766;9.176;2024-03-02T05:00:22;97167.56;;;5.40;100.00
49611;BME280;35515;48.766;9.176;2024-03-02T05:02:49;97170.63;;;5.37;100.00
49611;BME280;35515;48.766;9.176;2024-03-02T05:05:16;97170.25;;;5.53;100.00
49611;BME280;35515;48.766;9.176;2024-03-02T05:07:43;97170.25;;;5.60;100.00
49611;BME280;35515;48.766;9.176;2024-03-02T05:10:09;97165.25;;;5.37;100.00
49611;BME280;35515;48.766;9.176;2024-03-02T05:12:37;97169.59;;;5.38;100.00
49611;BME280;35515;48.766;9.176;2024-03-02T05:15:23;97165.66;;;5.34;100.00
49611;BME280;35515;48.766;9.176;2024-03-02T05:17:49;97177.44;;;5.33;100.00
49611;BME280;35515;48.766;9.176;2024-03-02T05:20:16;97177.22;;;5.21;100.00
49611;BME280;35515;48.766;9.176;2024-03-02T05:22:43;97170.44;;;5.32;100.00
49611;BME280;35515;48.766;9.176;2024-03-02T05:25:09;97173.75;;;5.47;100.00
49611;BME280;35515;48.766;9.176;2024-03-02T05:27:36;97184.28;;;5.42;100.00
49611;BME280;35515;48.766;9.176;2024-03-02T05:30:03;97172.13;;;5.66;100.00
49611;BME280;35515;48.766;9.176;2024-03-02T05:32:33;97177.69;;;5.65;100.00
49611;BME280;35515;48.766;9.176;2024-03-02T05:34:59;97176.88;;;5.58;100.00
49611;BME280;35515;48.766;9.176;2024-03-02T05:37:26;97177.06;;;5.49;100.00
49611;BME280;35515;48.766;9.176;2024-03-02T05:39:52;97175.00;;;5.58;100.00
49611;BME280;35515;48.766;9.176;2024-03-02T05:42:19;97176.22;;;5.76;100.00
49611;BME280;35515;48.766;9.176;2024-03-02T05:44:45;97180.34;;;5.45;100.00
49611;BME280;35515;48.766;9.176;2024-03-02T05:47:12;97172.50;;;5.36;100.00
49611;BME280;35515;48.766;9.176;2024-03-02T05:49:40;97188.84;;;5.48;100.00
49611;BME280;35515;48.766;9.176;2024-03-02T05:52:08;97192.75;;;5.52;100.00
49611;BME280;35515;48.766;9.176;2024-03-02T05:54:34;97190.47;;;5.36;100.00
49611;BME280;35515;48.766;9.176;2024-03-02T05:57:01;97190.25;;;5.31;100.00
49611;BME280;35515;48.766;9.176;2024-03-02T05:59:42;97191.31;;;5.57;100.00
49611;BME280;35515;48.766;9.176;2024-03-02T06:02:09;97193.41;;;5.55;100.00
49611;BME280;35515;48.766;9.176;2024-03-02T06:04:35;97197.69;;;5.29;100.00
49611;BME280;35515;48.766;9.176;2024-03-02T06:07:03;97197.69;;;5.42;100.00
49611;BME280;35515;48.766;9.176;2024-03-02T06:09:29;97188.19;;;5.46;100.00
49611;BME280;35515;48.766;9.176;2024-03-02T06:11:56;97190.72;;;5.48;100.00
49611;BME280;35515;48.766;9.176;2024-03-02T06:14:22;97199.78;;;5.47;100.00
49611;BME280;35515;48.766;9.176;2024-03-02T06:16:54;97191.28;;;5.30;100.00
49611;BME280;35515;48.766;9.176;2024-03-02T06:19:24;97190.84;;;5.26;100.00
49611;BME280;35515;48.766;9.176;2024-03-02T06:21:51;97186.94;;;5.29;100.00
49611;BME280;35515;48.766;9.176;2024-03-02T06:24:19;97186.94;;;5.29;100.00
49611;BME280;35515;48.766;9.176;2024-03-02T06:26:45;97188.19;;;5.33;100.00
49611;BME280;35515;48.766;9.176;2024-03-02T06:29:12;97191.06;;;5.25;100.00
49611;BME280;35515;48.766;9.176;2024-03-02T06:31:38;97200.97;;;5.17;100.00
49611;BME280;35515;48.766;9.176;2024-03-02T06:34:05;97208.81;;;5.19;100.00
49611;BME280;35515;48.766;9.176;2024-03-02T06:36:31;97213.16;;;5.13;100.00
49611;BME280;35515;48.766;9.176;2024-03-02T06:38:58;97215.88;;;5.27;100.00
49611;BME280;35515;48.766;9.176;2024-03-02T06:41:26;97209.28;;;5.43;100.00
49611;BME280;35515;48.766;9.176;2024-03-02T06:43:52;97211.78;;;5.58;100.00
49611;BME280;35515;48.766;9.176;2024-03-02T06:46:24;97207.88;;;5.80;100.00
49611;BME280;35515;48.766;9.176;2024-03-02T06:48:51;97216.28;;;5.44;100.00
49611;BME280;35515;48.766;9.176;2024-03-02T06:51:17;97214.22;;;5.39;100.00
49611;BME280;35515;48.766;9.176;2024-03-02T06:53:44;97209.28;;;5.36;100.00
49611;BME280;35515;48.766;9.176;2024-03-02T06:56:11;97215.47;;;5.43;100.00
49611;BME280;35515;48.766;9.176;2024-03-02T06:58:39;97217.97;;;5.65;100.00
49611;BME280;35515;48.766;9.176;2024-03-02T07:01:05;97223.19;;;5.73;100.00
49611;BME280;35515;48.766;9.176;2024-03-02T07:03:32;97216.13;;;5.52;100.00
49611;BME280;35515;48.766;9.176;2024-03-02T07:05:59;97208.84;;;5.32;100.00
49611;BME280;35515;48.766;9.176;2024-03-02T07:08:25;97208.47;;;5.82;100.00
49611;BME280;35515;48.766;9.176;2024-03-02T07:10:52;97209.53;;;5.81;100.00
49611;BME280;35515;48.766;9.176;2024-03-02T07:13:19;97216.75;;;5.61;100.00
49611;BME280;35515;48.766;9.176;2024-03-02T07:15:47;97217.16;;;5.58;100.00
49611;BME280;35515;48.766;9.176;2024-03-02T07:18:36;97211.16;;;5.56;100.00
49611;BME280;35515;48.766;9.176;2024-03-02T07:21:06;97211.78;;;5.58;100.00
49611;BME280;35515;48.766;9.176;2024-03-02T07:23:34;97224.41;;;5.71;100.00
49611;BME280;35515;48.766;9.176;2024-03-02T07:26:00;97227.72;;;5.73;100.00
49611;BME280;35515;48.766;9.176;2024-03-02T07:28:27;97211.00;;;5.77;100.00
49611;BME280;35515;48.766;9.176;2024-03-02T07:30:59;97214.50;;;5.84;100.00
49611;BME280;35515;48.766;9.176;2024-03-02T07:33:26;97215.31;;;5.92;100.00
49611;BME280;35515;48.766;9.176;2024-03-02T07:35:53;97214.28;;;5.93;100.00
49611;BME280;35515;48.766;9.176;2024-03-02T07:38:20;97212.25;;;6.08;100.00
49611;BME280;35515;48.766;9.176;2024-03-02T07:40:47;97209.13;;;6.05;100.00
49611;BME280;35515;48.766;9.176;2024-03-02T07:43:15;97209.13;;;6.11;100.00
49611;BME280;35515;48.766;9.176;2024-03-02T07:45:42;97213.91;;;6.23;100.00
49611;BME280;35515;48.766;9.176;2024-03-02T07:48:10;97211.59;;;6.33;100.00
49611;BME280;35515;48.766;9.176;2024-03-02T07:50:37;97219.00;;;6.51;100.00
49611;BME280;35515;48.766;9.176;2024-03-02T07:53:04;97222.13;;;6.48;100.00
49611;BME280;35515;48.766;9.176;2024-03-02T07:55:31;97227.69;;;6.60;100.00
49611;BME280;35515;48.766;9.176;2024-03-02T07:57:57;97225.19;;;6.58;100.00
49611;BME280;35515;48.766;9.176;2024-03-02T08:00:24;97231.22;;;6.53;100.00
49611;BME280;35515;48.766;9.176;2024-03-02T08:02:51;97231.66;;;6.50;100.00
49611;BME280;35515;48.766;9.176;2024-03-02T08:05:20;97218.81;;;6.46;100.00
49611;BME280;35515;48.766;9.176;2024-03-02T08:07:47;97221.50;;;6.52;100.00
49611;BME280;35515;48.766;9.176;2024-03-02T08:10:18;97214.66;;;6.57;100.00
49611;BME280;35515;48.766;9.176;2024-03-02T08:12:45;97217.31;;;6.63;100.00
49611;BME280;35515;48.766;9.176;2024-03-02T08:15:11;97215.50;;;6.57;100.00
49611;BME280;35515;48.766;9.176;2024-03-02T08:17:38;97223.16;;;6.53;100.00
49611;BME280;35515;48.766;9.176;2024-03-02T08:20:10;97216.72;;;6.61;100.00
49611;BME280;35515;48.766;9.176;2024-03-02T08:22:39;97209.91;;;6.59;100.00
49611;BME280;35515;48.766;9.176;2024-03-02T08:25:07;97219.19;;;6.63;100.00
49611;BME280;35515;48.766;9.176;2024-03-02T08:27:35;97207.81;;;6.61;100.00
49611;BME280;35515;48.766;9.176;2024-03-02T08:30:02;97203.47;;;6.60;100.00
49611;BME280;35515;48.766;9.176;2024-03-02T08:32:31;97209.47;;;6.62;100.00
49611;BME280;35515;48.766;9.176;2024-03-02T08:34:58;97192.84;;;6.78;100.00
49611;BME280;35515;48.766;9.176;2024-03-02T08:37:24;97198.00;;;6.86;100.00
49611;BME280;35515;48.766;9.176;2024-03-02T08:39:53;97204.59;;;6.97;99.73
49611;BME280;35515;48.766;9.176;2024-03-02T08:42:19;97208.34;;;6.90;99.75
49611;BME280;35515;48.766;9.176;2024-03-02T08:44:46;97211.63;;;6.92;99.43
49611;BME280;35515;48.766;9.176;2024-03-02T08:47:13;97218.25;;;6.96;98.26
49611;BME280;35515;48.766;9.176;2024-03-02T08:49:40;97206.06;;;6.93;97.65
49611;BME280;35515;48.766;9.176;2024-03-02T08:52:06;97206.25;;;6.98;97.00
49611;BME280;35515;48.766;9.176;2024-03-02T08:54:33;97210.78;;;6.98;95.93
49611;BME280;35515;48.766;9.176;2024-03-02T08:57:02;97199.56;;;7.01;95.96
49611;BME280;35515;48.766;9.176;2024-03-02T08:59:29;97205.38;;;7.05;95.87
49611;BME280;35515;48.766;9.176;2024-03-02T09:01:56;97210.50;;;7.13;95.29
49611;BME280;35515;48.766;9.176;2024-03-02T09:04:23;97209.88;;;7.17;94.77
49611;BME280;35515;48.766;9.176;2024-03-02T09:06:50;97208.59;;;7.27;94.83
49611;BME280;35515;48.766;9.176;2024-03-02T09:09:16;97196.13;;;7.32;95.10
49611;BME280;35515;48.766;9.176;2024-03-02T09:11:43;97198.09;;;7.50;91.74
49611;BME280;35515;48.766;9.176;2024-03-02T09:14:11;97206.31;;;7.56;92.11
49611;BME280;35515;48.766;9.176;2024-03-02T09:16:37;97199.47;;;7.60;91.91
49611;BME280;35515;48.766;9.176;2024-03-02T09:19:04;97202.13;;;7.66;91.83
49611;BME280;35515;48.766;9.176;2024-03-02T09:21:30;97192.75;;;7.69;90.75
49611;BME280;35515;48.766;9.176;2024-03-02T09:23:57;97202.72;;;7.94;89.03
49611;BME280;35515;48.766;9.176;2024-03-02T09:26:24;97194.97;;;8.04;88.44
49611;BME280;35515;48.766;9.176;2024-03-02T09:28:51;97192.13;;;7.99;88.48
49611;BME280;35515;48.766;9.176;2024-03-02T09:31:19;97195.25;;;7.96;88.74
49611;BME280;35515;48.766;9.176;2024-03-02T09:33:45;97192.72;;;8.01;88.04
49611;BME280;35515;48.766;9.176;2024-03-02T09:36:22;97195.84;;;7.98;88.46
49611;BME280;35515;48.766;9.176;2024-03-02T09:38:49;97184.03;;;7.99;89.19
49611;BME280;35515;48.766;9.176;2024-03-02T09:41:16;97193.56;;;8.01;88.85
49611;BME280;35515;48.766;9.176;2024-03-02T09:43:45;97187.72;;;8.04;89.57
49611;BME280;35515;48.766;9.176;2024-03-02T09:46:12;97182.19;;;8.18;87.73
49611;BME280;35515;48.766;9.176;2024-03-02T09:48:40;97173.06;;;8.19;88.71
49611;BME280;35515;48.766;9.176;2024-03-02T09:51:07;97156.88;;;8.19;88.26
49611;BME280;35515;48.766;9.176;2024-03-02T09:53:34;97163.25;;;8.25;87.44
49611;BME280;35515;48.766;9.176;2024-03-02T09:56:02;97176.66;;;8.31;87.41
49611;BME280;35515;48.766;9.176;2024-03-02T09:58:28;97159.59;;;8.37;85.49
49611;BME280;35515;48.766;9.176;2024-03-02T10:00:55;97158.91;;;8.42;85.10
49611;BME280;35515;48.766;9.176;2024-03-02T10:03:22;97165.38;;;8.41;84.65
49611;BME280;35515;48.766;9.176;2024-03-02T10:05:50;97169.31;;;8.45;84.58
49611;BME280;35515;48.766;9.176;2024-03-02T10:08:21;97162.97;;;8.51;84.34
49611;BME280;35515;48.766;9.176;2024-03-02T10:10:47;97161.28;;;8.57;84.53
49611;BME280;35515;48.766;9.176;2024-03-02T10:13:14;97157.66;;;8.63;82.87
49611;BME280;35515;48.766;9.176;2024-03-02T10:15:41;97148.44;;;8.71;82.61
49611;BME280;35515;48.766;9.176;2024-03-02T10:18:09;97152.94;;;8.77;82.69
49611;BME280;35515;48.766;9.176;2024-03-02T10:20:37;97147.81;;;8.87;81.50
49611;BME280;35515;48.766;9.176;2024-03-02T10:23:11;97153.50;;;8.98;80.88
49611;BME280;35515;48.766;9.176;2024-03-02T10:25:40;97146.44;;;9.27;79.21
49611;BME280;35515;48.766;9.176;2024-03-02T10:28:07;97149.84;;;9.23;79.44
49611;BME280;35515;48.766;9.176;2024-03-02T10:30:34;97146.44;;;9.27;77.41
49611;BME280;35515;48.766;9.176;2024-03-02T10:33:01;97144.38;;;9.29;78.20
49611;BME280;35515;48.766;9.176;2024-03-02T10:35:28;97137.31;;;9.28;79.51
49611;BME280;35515;48.766;9.176;2024-03-02T10:37:58;97136.94;;;9.25;79.81
49611;BME280;35515;48.766;9.176;2024-03-02T10:40:26;97138.97;;;9.29;78.98
49611;BME280;35515;48.766;9.176;2024-03-02T10:42:53;97140.94;;;9.34;78.52
49611;BME280;35515;48.766;9.176;2024-03-02T10:45:20;97140.94;;;9.34;78.95
49611;BME280;35515;48.766;9.176;2024-03-02T10:47:48;97141.69;;;9.41;78.84
49611;BME280;35515;48.766;9.176;2024-03-02T10:50:14;97129.13;;;9.47;77.80
49611;BME280;35515;48.766;9.176;2024-03-02T10:52:41;97133.16;;;9.56;79.13
49611;BME280;35515;48.766;9.176;2024-03-02T10:55:08;97125.97;;;9.62;79.04
49611;BME280;35515;48.766;9.176;2024-03-02T10:57:42;97126.72;;;9.69;79.52
49611;BME280;35515;48.766;9.176;2024-03-02T11:00:12;97124.00;;;9.81;79.17
49611;BME280;35515;48.766;9.176;2024-03-02T11:02:46;97107.66;;;9.87;78.72
49611;BME280;35515;48.766;9.176;2024-03-02T11:05:23;97114.34;;;9.97;79.16
49611;BME280;35515;48.766;9.176;2024-03-02T11:07:53;97110.03;;;9.96;79.26
49611;BME280;35515;48.766;9.176;2024-03-02T11:10:24;97106.38;;;10.02;79.03
49611;BME280;35515;48.766;9.176;2024-03-02T11:12:56;97097.44;;;10.13;76.88
49611;BME280;35515;48.766;9.176;2024-03-02T11:15:27;97105.78;;;10.24;76.55
49611;BME280;35515;48.766;9.176;2024-03-02T11:17:54;97102.47;;;10.21;76.37
49611;BME280;35515;48.766;9.176;2024-03-02T11:20:21;97101.53;;;10.28;75.39
49611;BME280;35515;48.766;9.176;2024-03-02T11:22:48;97088.09;;;10.33;73.93
49611;BME280;35515;48.766;9.176;2024-03-02T11:25:24;97086.47;;;10.32;74.79
49611;BME280;35515;48.766;9.176;2024-03-02T11:28:10;97080.47;;;10.42;71.94
49611;BME280;35515;48.766;9.176;2024-03-02T11:30:50;97066.22;;;10.46;69.71
49611;BME280;35515;48.766;9.176;2024-03-02T11:33:23;97070.66;;;10.52;68.09
49611;BME280;35515;48.766;9.176;2024-03-02T11:35:50;97066.75;;;10.60;66.48
49611;BME280;35515;48.766;9.176;2024-03-02T11:38:17;97055.44;;;10.63;66.84
49611;BME280;35515;48.766;9.176;2024-03-02T11:40:44;97057.91;;;10.65;67.34
49611;BME280;35515;48.766;9.176;2024-03-02T11:43:12;97056.03;;;10.65;68.43
49611;BME280;35515;48.766;9.176;2024-03-02T11:45:41;97044.66;;;10.80;64.56
49611;BME280;35515;48.766;9.176;2024-03-02T11:48:13;97036.19;;;10.77;64.65
49611;BME280;35515;48.766;9.176;2024-03-02T11:50:40;97045.41;;;10.93;63.60
49611;BME280;35515;48.766;9.176;2024-03-02T11:53:08;97035.28;;;11.00;62.73
49611;BME280;35515;48.766;9.176;2024-03-02T11:55:36;97026.81;;;10.96;63.97
49611;BME280;35515;48.766;9.176;2024-03-02T11:58:03;97031.41;;;10.96;65.40
49611;BME280;35515;48.766;9.176;2024-03-02T12:00:31;97016.56;;;10.98;65.12
49611;BME280;35515;48.766;9.176;2024-03-02T12:03:00;97021.22;;;11.03;65.73
49611;BME280;35515;48.766;9.176;2024-03-02T12:05:27;97021.47;;;11.01;64.93
49611;BME280;35515;48.766;9.176;2024-03-02T12:07:56;97017.47;;;11.04;64.25
49611;BME280;35515;48.766;9.176;2024-03-02T12:10:23;97009.88;;;11.06;63.66
49611;BME280;35515;48.766;9.176;2024-03-02T12:12:55;97003.50;;;11.12;63.67
49611;BME280;35515;48.766;9.176;2024-03-02T12:15:23;97002.44;;;11.13;65.01
49611;BME280;35515;48.766;9.176;2024-03-02T12:17:54;97004.66;;;11.16;64.94
49611;BME280;35515;48.766;9.176;2024-03-02T12:20:21;97003.97;;;11.26;64.72
49611;BME280;35515;48.766;9.176;2024-03-02T12:22:49;97011.06;;;11.27;64.24
49611;BME280;35515;48.766;9.176;2024-03-02T12:25:16;97006.94;;;11.59;62.32
49611;BME280;35515;48.766;9.176;2024-03-02T12:27:42;96991.56;;;11.47;61.70
49611;BME280;35515;48.766;9.176;2024-03-02T12:30:10;96987.53;;;11.67;61.14
49611;BME280;35515;48.766;9.176;2024-03-02T12:32:39;96983.59;;;11.58;62.58
49611;BME280;35515;48.766;9.176;2024-03-02T12:35:08;96983.53;;;11.52;62.13
49611;BME280;35515;48.766;9.176;2024-03-02T12:37:42;96980.81;;;11.52;61.07
49611;BME280;35515;48.766;9.176;2024-03-02T12:40:10;96973.25;;;11.54;61.28
49611;BME280;35515;48.766;9.176;2024-03-02T12:42:37;96980.72;;;11.64;61.28
49611;BME280;35515;48.766;9.176;2024-03-02T12:45:05;96968.81;;;11.65;61.12
49611;BME280;35515;48.766;9.176;2024-03-02T12:47:33;96969.13;;;11.69;61.46
49611;BME280;35515;48.766;9.176;2024-03-02T12:49:59;96968.13;;;11.75;60.46
49611;BME280;35515;48.766;9.176;2024-03-02T12:52:27;96962.69;;;11.75;60.07
49611;BME280;35515;48.766;9.176;2024-03-02T12:54:54;96957.25;;;11.75;60.15
49611;BME280;35515;48.766;9.176;2024-03-02T12:57:25;96956.44;;;11.75;59.94
49611;BME280;35515;48.766;9.176;2024-03-02T12:59:52;96954.09;;;11.83;58.34
49611;BME280;35515;48.766;9.176;2024-03-02T13:02:19;96951.09;;;11.80;60.13
49611;BME280;35515;48.766;9.176;2024-03-02T13:04:52;96959.53;;;11.83;60.21